Форум клана ЧПУшников

Информация о пользователе

Привет, Гость! Войдите или зарегистрируйтесь.


Вы здесь » Форум клана ЧПУшников » Технологии, ремесла


Технологии, ремесла

Тем 1 страница 70 из 206

Тема Ответов Просмотров Последнее сообщение
50 1858 14-01-2017 03:59:13  130467
242 33902 Вчера 22:01:29  Ппум
91 7345 12-01-2017 23:59:21  tpltpk
17 920 11-01-2017 22:15:32  Сергей Агаджанян
27 1542 11-01-2017 21:55:37  Сергей Агаджанян
6 Имитация ковки.  томат иллюминат
9 308 07-01-2017 16:34:55  Расулыч
26 650 06-01-2017 18:12:02  k-garage
70 9127 05-01-2017 22:17:15  sghkdgjh
10 179 05-01-2017 12:20:12  micB
17 399 30-12-2016 23:55:28  Madrat
11 Интарсия  Администратор
13 654 24-12-2016 09:42:28  adres
89 4872 23-12-2016 14:16:50  vasa29
212 8510 23-12-2016 14:12:26  Сергей Агаджанян
28 859 23-12-2016 13:35:12  Сергей Агаджанян
27 860 19-12-2016 00:11:40  Ret
13 607 18-12-2016 06:03:52  Sozont
42 1665 12-12-2016 12:42:00  denisej
35 4721 09-12-2016 07:26:25  Prazd-nic
47 3337 06-12-2016 11:03:52  НеМалевич
39 7504 06-12-2016 09:54:47  blex
1 306 02-12-2016 09:52:14  Сергей88
10 524 02-12-2016 07:04:17  Михаил Давыдов
69 2703 26-11-2016 23:16:23  berivan
189 15661 19-11-2016 19:12:37  Олег Иваныч
67 5559 13-11-2016 04:19:08  Людмила
45 1455 08-11-2016 10:34:07  etechnics
33 1389 07-11-2016 09:40:32  bonna
39 4237 04-11-2016 12:37:12  esb
43 3753 02-11-2016 19:39:14  Brastin
7 630 26-10-2016 21:11:27  diver
124 3532 25-10-2016 15:16:40  виталя
14 880 24-10-2016 00:26:32  Lesha Nezhensky
8 340 22-10-2016 09:04:46  Крона
61 3791 21-10-2016 22:10:56  andrey_e
20 1277 18-10-2016 10:09:34  isnata
165 28394 17-10-2016 01:26:24  blackout18
18 5980 15-10-2016 12:06:56  dim2210
13 650 14-10-2016 12:26:54  ac1d3
27 4555 11-10-2016 00:07:50  АлександрБ
11 523 08-10-2016 19:13:43  Lecidei
18 2398 04-10-2016 15:46:23  walez
12 445 01-10-2016 08:38:25  sonvlad
73 2489 30-09-2016 10:42:49  semerochka
5 305 29-09-2016 17:35:40  vasa29
31 1123 26-09-2016 07:38:21  malchish
41 1351 17-09-2016 10:13:14  су-24
39 1915 04-09-2016 14:27:21  Yarec
7 700 30-08-2016 08:54:21  Windvill
7 206 29-08-2016 21:51:24  borodin
11 432 28-07-2016 14:45:57  micB
197 22363 03-07-2016 21:22:03  Chin
10 388 23-06-2016 10:50:17  chirik
53 диван честер  agronom_26
0 195 11-06-2016 21:50:39  agronom_26
43 15525 04-06-2016 16:31:07  Ostlavius
8 1662 04-06-2016 16:04:55  Ostlavius
45 1679 03-06-2016 11:41:11  НеМалевич
22 2931 30-05-2016 15:05:08  radinetz
1 200 30-05-2016 13:42:04  creatlab
15 669 21-05-2016 11:26:16  VM116
14 1627 16-05-2016 18:38:18  adres
58 3630 16-05-2016 13:13:41  ennio
14 803 10-05-2016 08:52:57  adres
72 10673 10-05-2016 08:37:52  adres
22 758 30-04-2016 10:46:21  vasa29
48 3318 26-04-2016 18:26:58  egnic
11 463 22-04-2016 19:22:15  serzh147
23 845 25-03-2016 20:43:45  Flight420
35 1400 13-03-2016 18:56:10  Расулыч
69 Интарсия  agronom_26
4 263 25-02-2016 21:52:16  DeKot
4 297 22-02-2016 20:06:09  Kinetic

Вы здесь » Форум клана ЧПУшников » Технологии, ремесла